sensor_id;sensor_type;location;lat;lon;timestamp;P1;durP1;ratioP1;P2;durP2;ratioP2
28509;SDS011;15723;55.684;37.928;2022-12-18T00:02:21;21.52;;;10.93;;
28509;SDS011;15723;55.684;37.928;2022-12-18T00:04:47;20.30;;;10.13;;
28509;SDS011;15723;55.684;37.928;2022-12-18T00:07:13;18.75;;;9.15;;
28509;SDS011;15723;55.684;37.928;2022-12-18T00:09:40;19.30;;;10.32;;
28509;SDS011;15723;55.684;37.928;2022-12-18T00:12:06;22.95;;;11.45;;
28509;SDS011;15723;55.684;37.928;2022-12-18T00:14:32;27.85;;;12.00;;
28509;SDS011;15723;55.684;37.928;2022-12-18T00:16:59;17.75;;;10.57;;
28509;SDS011;15723;55.684;37.928;2022-12-18T00:19:26;23.65;;;10.82;;
28509;SDS011;15723;55.684;37.928;2022-12-18T00:21:52;20.77;;;10.63;;
28509;SDS011;15723;55.684;37.928;2022-12-18T00:24:19;26.17;;;10.27;;
28509;SDS011;15723;55.684;37.928;2022-12-18T00:26:45;25.45;;;11.18;;
28509;SDS011;15723;55.684;37.928;2022-12-18T00:29:12;19.55;;;9.88;;
28509;SDS011;15723;55.684;37.928;2022-12-18T00:31:40;18.30;;;10.38;;
28509;SDS011;15723;55.684;37.928;2022-12-18T00:34:09;36.22;;;11.90;;
28509;SDS011;15723;55.684;37.928;2022-12-18T00:36:39;20.80;;;11.02;;
28509;SDS011;15723;55.684;37.928;2022-12-18T00:39:06;20.38;;;10.30;;
28509;SDS011;15723;55.684;37.928;2022-12-18T00:41:33;15.75;;;8.82;;
28509;SDS011;15723;55.684;37.928;2022-12-18T00:44:18;20.40;;;10.80;;
28509;SDS011;15723;55.684;37.928;2022-12-18T00:46:45;22.80;;;11.18;;
28509;SDS011;15723;55.684;37.928;2022-12-18T00:49:12;26.02;;;8.70;;
28509;SDS011;15723;55.684;37.928;2022-12-18T00:51:39;20.50;;;9.55;;
28509;SDS011;15723;55.684;37.928;2022-12-18T00:54:06;16.73;;;9.02;;
28509;SDS011;15723;55.684;37.928;2022-12-18T00:56:32;17.50;;;9.82;;
28509;SDS011;15723;55.684;37.928;2022-12-18T00:58:58;16.92;;;9.80;;
28509;SDS011;15723;55.684;37.928;2022-12-18T01:01:24;18.17;;;10.15;;
28509;SDS011;15723;55.684;37.928;2022-12-18T01:03:51;17.52;;;9.80;;
28509;SDS011;15723;55.684;37.928;2022-12-18T01:06:19;19.08;;;9.77;;
28509;SDS011;15723;55.684;37.928;2022-12-18T01:08:46;15.48;;;9.10;;
28509;SDS011;15723;55.684;37.928;2022-12-18T01:11:14;17.65;;;10.15;;
28509;SDS011;15723;55.684;37.928;2022-12-18T01:13:42;18.45;;;9.75;;
28509;SDS011;15723;55.684;37.928;2022-12-18T01:16:11;15.02;;;8.32;;
28509;SDS011;15723;55.684;37.928;2022-12-18T01:18:38;16.52;;;9.07;;
28509;SDS011;15723;55.684;37.928;2022-12-18T01:21:06;15.98;;;9.07;;
28509;SDS011;15723;55.684;37.928;2022-12-18T01:23:37;16.95;;;9.00;;
28509;SDS011;15723;55.684;37.928;2022-12-18T01:26:06;14.73;;;7.95;;
28509;SDS011;15723;55.684;37.928;2022-12-18T01:28:37;18.23;;;9.77;;
28509;SDS011;15723;55.684;37.928;2022-12-18T01:33:41;19.23;;;9.57;;
28509;SDS011;15723;55.684;37.928;2022-12-18T01:36:11;18.15;;;9.55;;
28509;SDS011;15723;55.684;37.928;2022-12-18T01:38:41;18.20;;;9.20;;
28509;SDS011;15723;55.684;37.928;2022-12-18T01:41:07;14.90;;;8.50;;
28509;SDS011;15723;55.684;37.928;2022-12-18T01:43:41;18.48;;;9.25;;
28509;SDS011;15723;55.684;37.928;2022-12-18T01:46:07;14.50;;;8.15;;
28509;SDS011;15723;55.684;37.928;2022-12-18T01:48:34;17.10;;;9.38;;
28509;SDS011;15723;55.684;37.928;2022-12-18T01:51:00;15.52;;;8.60;;
28509;SDS011;15723;55.684;37.928;2022-12-18T01:53:27;14.63;;;7.85;;
28509;SDS011;15723;55.684;37.928;2022-12-18T01:55:55;15.38;;;8.30;;
28509;SDS011;15723;55.684;37.928;2022-12-18T01:58:24;18.40;;;9.80;;
28509;SDS011;15723;55.684;37.928;2022-12-18T02:01:14;17.17;;;9.00;;
28509;SDS011;15723;55.684;37.928;2022-12-18T02:03:41;14.18;;;8.35;;
28509;SDS011;15723;55.684;37.928;2022-12-18T02:11:49;19.58;;;8.52;;
28509;SDS011;15723;55.684;37.928;2022-12-18T02:16:59;16.30;;;8.38;;
28509;SDS011;15723;55.684;37.928;2022-12-18T02:24:35;12.50;;;7.43;;
28509;SDS011;15723;55.684;37.928;2022-12-18T02:27:11;12.23;;;7.47;;
28509;SDS011;15723;55.684;37.928;2022-12-18T02:29:40;19.88;;;8.98;;
28509;SDS011;15723;55.684;37.928;2022-12-18T02:32:10;15.88;;;7.97;;
28509;SDS011;15723;55.684;37.928;2022-12-18T02:34:45;15.50;;;8.90;;
28509;SDS011;15723;55.684;37.928;2022-12-18T02:37:16;20.05;;;8.43;;
28509;SDS011;15723;55.684;37.928;2022-12-18T02:39:45;14.45;;;8.00;;
28509;SDS011;15723;55.684;37.928;2022-12-18T02:42:14;14.02;;;8.10;;
28509;SDS011;15723;55.684;37.928;2022-12-18T02:44:47;16.58;;;8.52;;
28509;SDS011;15723;55.684;37.928;2022-12-18T02:47:19;12.15;;;6.65;;
28509;SDS011;15723;55.684;37.928;2022-12-18T02:52:38;16.48;;;8.40;;
28509;SDS011;15723;55.684;37.928;2022-12-18T02:55:34;14.50;;;7.68;;
28509;SDS011;15723;55.684;37.928;2022-12-18T03:01:21;14.50;;;7.65;;
28509;SDS011;15723;55.684;37.928;2022-12-18T03:04:14;17.75;;;8.63;;
28509;SDS011;15723;55.684;37.928;2022-12-18T03:06:49;13.13;;;7.25;;
28509;SDS011;15723;55.684;37.928;2022-12-18T03:09:31;13.80;;;8.02;;
28509;SDS011;15723;55.684;37.928;2022-12-18T03:12:10;14.45;;;7.65;;
28509;SDS011;15723;55.684;37.928;2022-12-18T03:17:27;13.40;;;8.50;;
28509;SDS011;15723;55.684;37.928;2022-12-18T03:19:56;13.25;;;7.20;;
28509;SDS011;15723;55.684;37.928;2022-12-18T03:24:56;20.38;;;7.20;;
28509;SDS011;15723;55.684;37.928;2022-12-18T03:27:26;12.60;;;7.93;;
28509;SDS011;15723;55.684;37.928;2022-12-18T03:35:14;14.02;;;7.63;;
28509;SDS011;15723;55.684;37.928;2022-12-18T03:37:44;12.48;;;8.20;;
28509;SDS011;15723;55.684;37.928;2022-12-18T03:40:11;14.50;;;8.80;;
28509;SDS011;15723;55.684;37.928;2022-12-18T03:42:56;15.65;;;8.90;;
28509;SDS011;15723;55.684;37.928;2022-12-18T03:45:32;16.52;;;7.53;;
28509;SDS011;15723;55.684;37.928;2022-12-18T03:50:56;14.40;;;8.20;;
28509;SDS011;15723;55.684;37.928;2022-12-18T03:56:06;15.02;;;8.68;;
28509;SDS011;15723;55.684;37.928;2022-12-18T03:58:38;13.55;;;8.32;;
28509;SDS011;15723;55.684;37.928;2022-12-18T04:01:20;11.60;;;7.28;;
28509;SDS011;15723;55.684;37.928;2022-12-18T04:03:51;13.07;;;7.57;;
28509;SDS011;15723;55.684;37.928;2022-12-18T04:06:19;13.93;;;7.60;;
28509;SDS011;15723;55.684;37.928;2022-12-18T04:08:47;14.77;;;8.20;;
28509;SDS011;15723;55.684;37.928;2022-12-18T04:11:17;15.32;;;7.78;;
28509;SDS011;15723;55.684;37.928;2022-12-18T04:13:45;16.45;;;8.45;;
28509;SDS011;15723;55.684;37.928;2022-12-18T04:16:18;16.55;;;7.80;;
28509;SDS011;15723;55.684;37.928;2022-12-18T04:18:45;12.95;;;8.10;;
28509;SDS011;15723;55.684;37.928;2022-12-18T04:21:13;21.92;;;6.90;;
28509;SDS011;15723;55.684;37.928;2022-12-18T04:23:39;11.48;;;7.25;;
28509;SDS011;15723;55.684;37.928;2022-12-18T04:26:06;14.85;;;7.97;;
28509;SDS011;15723;55.684;37.928;2022-12-18T04:28:46;17.92;;;8.60;;
28509;SDS011;15723;55.684;37.928;2022-12-18T04:31:12;22.50;;;9.02;;
28509;SDS011;15723;55.684;37.928;2022-12-18T04:33:39;16.02;;;8.25;;
28509;SDS011;15723;55.684;37.928;2022-12-18T04:36:06;13.90;;;8.38;;
28509;SDS011;15723;55.684;37.928;2022-12-18T04:38:33;14.40;;;8.57;;
28509;SDS011;15723;55.684;37.928;2022-12-18T04:41:06;16.65;;;8.50;;
28509;SDS011;15723;55.684;37.928;2022-12-18T04:43:33;12.52;;;7.60;;
28509;SDS011;15723;55.684;37.928;2022-12-18T04:46:02;16.13;;;9.07;;
28509;SDS011;15723;55.684;37.928;2022-12-18T04:48:30;13.40;;;7.57;;
28509;SDS011;15723;55.684;37.928;2022-12-18T04:50:56;14.75;;;7.53;;
28509;SDS011;15723;55.684;37.928;2022-12-18T04:53:22;14.35;;;7.88;;
28509;SDS011;15723;55.684;37.928;2022-12-18T04:55:49;19.48;;;8.00;;
28509;SDS011;15723;55.684;37.928;2022-12-18T04:58:15;20.25;;;8.80;;
28509;SDS011;15723;55.684;37.928;2022-12-18T05:00:41;18.23;;;8.73;;
28509;SDS011;15723;55.684;37.928;2022-12-18T05:03:08;15.70;;;8.07;;
28509;SDS011;15723;55.684;37.928;2022-12-18T05:05:34;17.48;;;8.23;;
28509;SDS011;15723;55.684;37.928;2022-12-18T05:08:01;12.90;;;8.32;;
28509;SDS011;15723;55.684;37.928;2022-12-18T05:10:27;16.20;;;8.75;;
28509;SDS011;15723;55.684;37.928;2022-12-18T05:12:53;16.85;;;8.63;;
28509;SDS011;15723;55.684;37.928;2022-12-18T05:15:29;14.25;;;7.10;;
28509;SDS011;15723;55.684;37.928;2022-12-18T05:17:57;18.70;;;8.90;;
28509;SDS011;15723;55.684;37.928;2022-12-18T05:20:24;16.88;;;9.27;;
28509;SDS011;15723;55.684;37.928;2022-12-18T05:22:51;13.23;;;7.90;;
28509;SDS011;15723;55.684;37.928;2022-12-18T05:25:17;15.68;;;9.13;;
28509;SDS011;15723;55.684;37.928;2022-12-18T05:27:44;12.85;;;7.72;;
28509;SDS011;15723;55.684;37.928;2022-12-18T05:30:11;12.68;;;7.13;;
28509;SDS011;15723;55.684;37.928;2022-12-18T05:32:38;11.27;;;6.75;;
28509;SDS011;15723;55.684;37.928;2022-12-18T05:35:04;11.25;;;6.97;;
28509;SDS011;15723;55.684;37.928;2022-12-18T05:37:32;14.80;;;8.27;;
28509;SDS011;15723;55.684;37.928;2022-12-18T05:39:59;14.25;;;7.78;;
28509;SDS011;15723;55.684;37.928;2022-12-18T05:42:25;14.15;;;7.32;;
28509;SDS011;15723;55.684;37.928;2022-12-18T05:44:51;15.02;;;8.00;;
28509;SDS011;15723;55.684;37.928;2022-12-18T05:47:18;14.70;;;8.05;;
28509;SDS011;15723;55.684;37.928;2022-12-18T05:49:44;13.80;;;7.72;;
28509;SDS011;15723;55.684;37.928;2022-12-18T05:52:10;13.65;;;7.95;;
28509;SDS011;15723;55.684;37.928;2022-12-18T05:54:37;13.75;;;7.97;;
28509;SDS011;15723;55.684;37.928;2022-12-18T05:57:03;15.35;;;8.88;;
28509;SDS011;15723;55.684;37.928;2022-12-18T05:59:29;18.92;;;8.88;;
28509;SDS011;15723;55.684;37.928;2022-12-18T06:01:55;17.83;;;9.40;;
28509;SDS011;15723;55.684;37.928;2022-12-18T06:04:21;17.92;;;9.80;;
28509;SDS011;15723;55.684;37.928;2022-12-18T06:06:48;15.80;;;8.75;;
28509;SDS011;15723;55.684;37.928;2022-12-18T06:09:14;22.90;;;11.15;;
28509;SDS011;15723;55.684;37.928;2022-12-18T06:11:40;23.45;;;12.50;;
28509;SDS011;15723;55.684;37.928;2022-12-18T06:14:06;21.85;;;11.57;;
28509;SDS011;15723;55.684;37.928;2022-12-18T06:16:33;18.83;;;10.55;;
28509;SDS011;15723;55.684;37.928;2022-12-18T06:19:00;18.60;;;9.52;;
28509;SDS011;15723;55.684;37.928;2022-12-18T06:21:28;19.75;;;9.70;;
28509;SDS011;15723;55.684;37.928;2022-12-18T06:23:55;18.83;;;9.15;;
28509;SDS011;15723;55.684;37.928;2022-12-18T06:26:21;21.50;;;9.05;;
28509;SDS011;15723;55.684;37.928;2022-12-18T06:28:48;17.58;;;8.93;;
28509;SDS011;15723;55.684;37.928;2022-12-18T06:31:14;17.92;;;9.52;;
28509;SDS011;15723;55.684;37.928;2022-12-18T06:33:40;18.83;;;8.70;;
28509;SDS011;15723;55.684;37.928;2022-12-18T06:36:07;18.95;;;9.68;;
28509;SDS011;15723;55.684;37.928;2022-12-18T06:38:41;17.95;;;8.82;;
28509;SDS011;15723;55.684;37.928;2022-12-18T06:41:10;18.38;;;9.10;;
28509;SDS011;15723;55.684;37.928;2022-12-18T06:43:37;14.65;;;8.35;;
28509;SDS011;15723;55.684;37.928;2022-12-18T06:46:04;16.55;;;9.40;;
28509;SDS011;15723;55.684;37.928;2022-12-18T06:48:31;15.60;;;9.20;;
28509;SDS011;15723;55.684;37.928;2022-12-18T06:50:58;16.88;;;9.30;;
28509;SDS011;15723;55.684;37.928;2022-12-18T06:53:25;14.52;;;8.85;;
28509;SDS011;15723;55.684;37.928;2022-12-18T06:55:51;14.85;;;8.98;;
28509;SDS011;15723;55.684;37.928;2022-12-18T06:58:18;14.05;;;7.93;;
28509;SDS011;15723;55.684;37.928;2022-12-18T07:00:44;16.77;;;9.93;;
28509;SDS011;15723;55.684;37.928;2022-12-18T07:03:10;12.32;;;8.25;;
28509;SDS011;15723;55.684;37.928;2022-12-18T07:05:39;15.85;;;9.05;;
28509;SDS011;15723;55.684;37.928;2022-12-18T07:08:06;16.95;;;8.82;;
28509;SDS011;15723;55.684;37.928;2022-12-18T07:10:32;15.95;;;8.65;;
28509;SDS011;15723;55.684;37.928;2022-12-18T07:12:58;13.32;;;7.60;;
28509;SDS011;15723;55.684;37.928;2022-12-18T07:15:25;12.65;;;8.43;;
28509;SDS011;15723;55.684;37.928;2022-12-18T07:17:51;15.48;;;8.00;;
28509;SDS011;15723;55.684;37.928;2022-12-18T07:20:17;13.70;;;7.70;;
28509;SDS011;15723;55.684;37.928;2022-12-18T07:22:43;14.57;;;7.85;;
28509;SDS011;15723;55.684;37.928;2022-12-18T07:25:10;12.38;;;7.35;;
28509;SDS011;15723;55.684;37.928;2022-12-18T07:27:36;12.48;;;7.65;;
28509;SDS011;15723;55.684;37.928;2022-12-18T07:30:02;15.85;;;8.57;;
28509;SDS011;15723;55.684;37.928;2022-12-18T07:32:29;13.27;;;7.25;;
28509;SDS011;15723;55.684;37.928;2022-12-18T07:34:56;14.18;;;7.72;;
28509;SDS011;15723;55.684;37.928;2022-12-18T07:37:22;15.15;;;7.80;;
28509;SDS011;15723;55.684;37.928;2022-12-18T07:39:48;13.68;;;8.80;;
28509;SDS011;15723;55.684;37.928;2022-12-18T07:42:14;13.43;;;7.43;;
28509;SDS011;15723;55.684;37.928;2022-12-18T07:44:57;12.18;;;6.95;;
28509;SDS011;15723;55.684;37.928;2022-12-18T07:47:24;10.90;;;7.43;;
28509;SDS011;15723;55.684;37.928;2022-12-18T07:49:50;13.73;;;7.75;;
28509;SDS011;15723;55.684;37.928;2022-12-18T07:52:17;12.48;;;7.93;;
28509;SDS011;15723;55.684;37.928;2022-12-18T07:54:45;14.43;;;7.85;;
28509;SDS011;15723;55.684;37.928;2022-12-18T07:57:11;13.60;;;7.10;;
28509;SDS011;15723;55.684;37.928;2022-12-18T07:59:37;13.57;;;8.10;;
28509;SDS011;15723;55.684;37.928;2022-12-18T08:02:03;12.05;;;8.07;;
28509;SDS011;15723;55.684;37.928;2022-12-18T08:04:30;16.23;;;8.40;;
28509;SDS011;15723;55.684;37.928;2022-12-18T08:06:56;15.73;;;8.13;;
28509;SDS011;15723;55.684;37.928;2022-12-18T08:09:22;18.80;;;8.05;;
28509;SDS011;15723;55.684;37.928;2022-12-18T08:11:48;12.85;;;7.53;;
28509;SDS011;15723;55.684;37.928;2022-12-18T08:14:14;18.27;;;8.40;;
28509;SDS011;15723;55.684;37.928;2022-12-18T08:16:40;12.70;;;7.38;;
28509;SDS011;15723;55.684;37.928;2022-12-18T08:19:07;11.70;;;6.80;;
28509;SDS011;15723;55.684;37.928;2022-12-18T08:21:33;11.20;;;6.93;;
28509;SDS011;15723;55.684;37.928;2022-12-18T08:23:59;15.38;;;8.07;;
28509;SDS011;15723;55.684;37.928;2022-12-18T08:26:28;12.85;;;7.15;;
28509;SDS011;15723;55.684;37.928;2022-12-18T08:28:56;13.98;;;7.85;;
28509;SDS011;15723;55.684;37.928;2022-12-18T08:31:24;14.52;;;7.32;;
28509;SDS011;15723;55.684;37.928;2022-12-18T08:33:52;12.70;;;7.88;;
28509;SDS011;15723;55.684;37.928;2022-12-18T08:36:19;13.38;;;8.10;;
28509;SDS011;15723;55.684;37.928;2022-12-18T08:38:46;12.80;;;8.00;;
28509;SDS011;15723;55.684;37.928;2022-12-18T08:41:14;12.98;;;7.90;;
28509;SDS011;15723;55.684;37.928;2022-12-18T08:43:41;13.57;;;7.85;;
28509;SDS011;15723;55.684;37.928;2022-12-18T08:46:26;11.48;;;6.93;;
28509;SDS011;15723;55.684;37.928;2022-12-18T08:48:56;14.10;;;7.68;;
28509;SDS011;15723;55.684;37.928;2022-12-18T08:51:23;11.05;;;6.95;;
28509;SDS011;15723;55.684;37.928;2022-12-18T08:53:50;13.43;;;7.82;;
28509;SDS011;15723;55.684;37.928;2022-12-18T08:56:16;13.90;;;7.75;;
28509;SDS011;15723;55.684;37.928;2022-12-18T08:58:42;11.52;;;7.03;;
28509;SDS011;15723;55.684;37.928;2022-12-18T09:01:09;12.68;;;7.55;;
28509;SDS011;15723;55.684;37.928;2022-12-18T09:03:37;14.00;;;7.13;;
28509;SDS011;15723;55.684;37.928;2022-12-18T09:06:04;12.50;;;7.05;;
28509;SDS011;15723;55.684;37.928;2022-12-18T09:08:34;11.48;;;7.03;;
28509;SDS011;15723;55.684;37.928;2022-12-18T09:11:00;12.93;;;8.13;;
28509;SDS011;15723;55.684;37.928;2022-12-18T09:13:27;13.30;;;7.03;;
28509;SDS011;15723;55.684;37.928;2022-12-18T09:15:53;12.05;;;7.22;;
28509;SDS011;15723;55.684;37.928;2022-12-18T09:18:21;18.92;;;7.63;;
28509;SDS011;15723;55.684;37.928;2022-12-18T09:20:49;12.80;;;7.40;;
28509;SDS011;15723;55.684;37.928;2022-12-18T09:23:18;12.02;;;6.85;;
28509;SDS011;15723;55.684;37.928;2022-12-18T09:25:45;9.38;;;6.03;;
28509;SDS011;15723;55.684;37.928;2022-12-18T09:28:13;11.13;;;6.90;;
28509;SDS011;15723;55.684;37.928;2022-12-18T09:30:43;13.63;;;7.80;;
28509;SDS011;15723;55.684;37.928;2022-12-18T09:33:11;15.98;;;6.68;;
28509;SDS011;15723;55.684;37.928;2022-12-18T09:35:38;11.52;;;7.13;;
28509;SDS011;15723;55.684;37.928;2022-12-18T09:38:05;13.32;;;6.75;;
28509;SDS011;15723;55.684;37.928;2022-12-18T09:40:35;10.00;;;6.60;;
28509;SDS011;15723;55.684;37.928;2022-12-18T09:43:05;12.05;;;7.00;;
28509;SDS011;15723;55.684;37.928;2022-12-18T09:45:40;11.60;;;7.05;;
28509;SDS011;15723;55.684;37.928;2022-12-18T09:48:11;10.07;;;6.18;;
28509;SDS011;15723;55.684;37.928;2022-12-18T09:50:45;13.45;;;6.38;;
28509;SDS011;15723;55.684;37.928;2022-12-18T09:53:17;10.05;;;5.45;;
28509;SDS011;15723;55.684;37.928;2022-12-18T09:55:48;11.75;;;6.03;;
28509;SDS011;15723;55.684;37.928;2022-12-18T10:00:57;10.25;;;6.07;;
28509;SDS011;15723;55.684;37.928;2022-12-18T10:03:24;13.48;;;6.72;;
28509;SDS011;15723;55.684;37.928;2022-12-18T10:05:54;10.00;;;6.38;;
28509;SDS011;15723;55.684;37.928;2022-12-18T10:08:35;14.52;;;6.47;;
28509;SDS011;15723;55.684;37.928;2022-12-18T10:13:58;13.05;;;5.93;;
28509;SDS011;15723;55.684;37.928;2022-12-18T10:26:49;9.98;;;6.03;;
28509;SDS011;15723;55.684;37.928;2022-12-18T10:29:16;10.85;;;6.40;;
28509;SDS011;15723;55.684;37.928;2022-12-18T10:31:42;10.10;;;5.93;;
28509;SDS011;15723;55.684;37.928;2022-12-18T10:34:11;10.15;;;5.53;;
28509;SDS011;15723;55.684;37.928;2022-12-18T10:36:38;11.90;;;6.38;;
28509;SDS011;15723;55.684;37.928;2022-12-18T10:39:18;18.13;;;5.60;;
28509;SDS011;15723;55.684;37.928;2022-12-18T10:41:50;9.70;;;5.60;;
28509;SDS011;15723;55.684;37.928;2022-12-18T10:46:46;11.77;;;5.65;;
28509;SDS011;15723;55.684;37.928;2022-12-18T10:49:29;9.73;;;5.57;;
28509;SDS011;15723;55.684;37.928;2022-12-18T10:52:31;10.07;;;5.95;;
28509;SDS011;15723;55.684;37.928;2022-12-18T10:59:59;10.32;;;5.57;;
28509;SDS011;15723;55.684;37.928;2022-12-18T11:02:47;10.23;;;5.80;;
28509;SDS011;15723;55.684;37.928;2022-12-18T11:05:24;9.52;;;5.47;;
28509;SDS011;15723;55.684;37.928;2022-12-18T11:07:51;8.45;;;5.18;;
28509;SDS011;15723;55.684;37.928;2022-12-18T11:10:20;8.10;;;4.90;;
28509;SDS011;15723;55.684;37.928;2022-12-18T11:12:48;12.48;;;5.75;;
28509;SDS011;15723;55.684;37.928;2022-12-18T11:15:19;9.38;;;5.90;;
28509;SDS011;15723;55.684;37.928;2022-12-18T11:17:49;8.85;;;5.55;;
28509;SDS011;15723;55.684;37.928;2022-12-18T11:20:30;10.77;;;5.22;;
28509;SDS011;15723;55.684;37.928;2022-12-18T11:23:04;8.50;;;5.20;;
28509;SDS011;15723;55.684;37.928;2022-12-18T11:25:36;9.38;;;5.28;;
28509;SDS011;15723;55.684;37.928;2022-12-18T11:28:23;10.30;;;5.80;;
28509;SDS011;15723;55.684;37.928;2022-12-18T11:31:08;10.63;;;5.70;;
28509;SDS011;15723;55.684;37.928;2022-12-18T11:34:32;10.63;;;6.18;;
28509;SDS011;15723;55.684;37.928;2022-12-18T11:36:59;9.93;;;5.60;;
28509;SDS011;15723;55.684;37.928;2022-12-18T11:39:39;10.15;;;5.70;;
28509;SDS011;15723;55.684;37.928;2022-12-18T11:45:24;10.90;;;6.60;;
28509;SDS011;15723;55.684;37.928;2022-12-18T11:47:58;14.93;;;6.28;;
28509;SDS011;15723;55.684;37.928;2022-12-18T11:50:41;16.63;;;7.05;;
28509;SDS011;15723;55.684;37.928;2022-12-18T11:53:16;9.75;;;5.28;;
28509;SDS011;15723;55.684;37.928;2022-12-18T12:01:13;9.23;;;5.38;;
28509;SDS011;15723;55.684;37.928;2022-12-18T12:06:54;20.60;;;6.50;;
28509;SDS011;15723;55.684;37.928;2022-12-18T12:09:39;9.63;;;5.47;;
28509;SDS011;15723;55.684;37.928;2022-12-18T12:12:38;11.20;;;5.95;;
28509;SDS011;15723;55.684;37.928;2022-12-18T12:15:33;9.32;;;5.15;;
28509;SDS011;15723;55.684;37.928;2022-12-18T12:18:19;12.32;;;5.70;;
28509;SDS011;15723;55.684;37.928;2022-12-18T12:26:36;11.68;;;6.13;;
28509;SDS011;15723;55.684;37.928;2022-12-18T12:32:03;10.43;;;5.35;;
28509;SDS011;15723;55.684;37.928;2022-12-18T12:40:12;8.95;;;5.30;;
28509;SDS011;15723;55.684;37.928;2022-12-18T12:42:47;10.55;;;5.55;;
28509;SDS011;15723;55.684;37.928;2022-12-18T12:45:49;15.07;;;5.18;;
28509;SDS011;15723;55.684;37.928;2022-12-18T12:51:28;9.23;;;5.30;;
28509;SDS011;15723;55.684;37.928;2022-12-18T12:53:59;8.52;;;5.30;;
28509;SDS011;15723;55.684;37.928;2022-12-18T12:56:37;8.85;;;5.22;;
28509;SDS011;15723;55.684;37.928;2022-12-18T13:01:59;6.97;;;4.18;;
28509;SDS011;15723;55.684;37.928;2022-12-18T13:04:39;17.67;;;5.53;;
28509;SDS011;15723;55.684;37.928;2022-12-18T13:10:11;8.30;;;4.75;;
28509;SDS011;15723;55.684;37.928;2022-12-18T13:13:01;7.80;;;4.53;;
28509;SDS011;15723;55.684;37.928;2022-12-18T13:21:20;9.90;;;4.70;;
28509;SDS011;15723;55.684;37.928;2022-12-18T13:25:55;8.85;;;4.68;;
28509;SDS011;15723;55.684;37.928;2022-12-18T13:31:57;10.23;;;5.30;;
28509;SDS011;15723;55.684;37.928;2022-12-18T13:36:42;8.90;;;5.13;;
28509;SDS011;15723;55.684;37.928;2022-12-18T13:39:20;9.23;;;4.80;;
28509;SDS011;15723;55.684;37.928;2022-12-18T13:41:53;8.27;;;4.60;;
28509;SDS011;15723;55.684;37.928;2022-12-18T13:45:00;12.25;;;5.85;;
28509;SDS011;15723;55.684;37.928;2022-12-18T13:50:10;10.10;;;5.43;;
28509;SDS011;15723;55.684;37.928;2022-12-18T13:52:50;16.67;;;4.80;;
28509;SDS011;15723;55.684;37.928;2022-12-18T13:55:18;7.00;;;3.75;;
28509;SDS011;15723;55.684;37.928;2022-12-18T13:57:46;9.52;;;5.75;;
28509;SDS011;15723;55.684;37.928;2022-12-18T14:02:48;12.32;;;5.35;;
28509;SDS011;15723;55.684;37.928;2022-12-18T14:05:25;10.43;;;4.75;;
28509;SDS011;15723;55.684;37.928;2022-12-18T14:08:06;10.02;;;5.60;;
28509;SDS011;15723;55.684;37.928;2022-12-18T14:10:40;9.60;;;5.10;;
28509;SDS011;15723;55.684;37.928;2022-12-18T14:13:15;13.35;;;5.38;;
28509;SDS011;15723;55.684;37.928;2022-12-18T14:15:48;16.05;;;5.63;;
28509;SDS011;15723;55.684;37.928;2022-12-18T14:21:29;15.55;;;7.30;;
28509;SDS011;15723;55.684;37.928;2022-12-18T14:24:31;23.30;;;9.80;;
28509;SDS011;15723;55.684;37.928;2022-12-18T14:26:51;18.00;;;8.10;;
28509;SDS011;15723;55.684;37.928;2022-12-18T14:29:35;20.23;;;8.02;;
28509;SDS011;15723;55.684;37.928;2022-12-18T14:34:33;23.27;;;10.52;;
28509;SDS011;15723;55.684;37.928;2022-12-18T14:36:59;28.95;;;11.10;;
28509;SDS011;15723;55.684;37.928;2022-12-18T14:39:25;24.30;;;10.90;;
28509;SDS011;15723;55.684;37.928;2022-12-18T14:41:52;25.08;;;9.82;;
28509;SDS011;15723;55.684;37.928;2022-12-18T14:44:18;27.55;;;10.65;;
28509;SDS011;15723;55.684;37.928;2022-12-18T14:46:47;28.05;;;11.45;;
28509;SDS011;15723;55.684;37.928;2022-12-18T14:51:47;27.90;;;10.68;;
28509;SDS011;15723;55.684;37.928;2022-12-18T14:54:16;31.85;;;11.55;;
28509;SDS011;15723;55.684;37.928;2022-12-18T14:56:46;28.92;;;12.93;;
28509;SDS011;15723;55.684;37.928;2022-12-18T14:59:16;23.25;;;9.98;;
28509;SDS011;15723;55.684;37.928;2022-12-18T15:01:56;22.63;;;10.00;;
28509;SDS011;15723;55.684;37.928;2022-12-18T15:04:36;23.02;;;10.48;;
28509;SDS011;15723;55.684;37.928;2022-12-18T15:07:19;27.90;;;11.25;;
28509;SDS011;15723;55.684;37.928;2022-12-18T15:12:42;20.77;;;9.68;;
28509;SDS011;15723;55.684;37.928;2022-12-18T15:20:40;23.08;;;9.35;;
28509;SDS011;15723;55.684;37.928;2022-12-18T15:23:23;19.88;;;7.63;;
28509;SDS011;15723;55.684;37.928;2022-12-18T15:26:01;19.05;;;7.82;;
28509;SDS011;15723;55.684;37.928;2022-12-18T15:33:39;23.15;;;9.63;;
28509;SDS011;15723;55.684;37.928;2022-12-18T15:36:12;17.10;;;7.82;;
28509;SDS011;15723;55.684;37.928;2022-12-18T15:38:40;16.55;;;7.50;;
28509;SDS011;15723;55.684;37.928;2022-12-18T15:41:13;16.05;;;6.75;;
28509;SDS011;15723;55.684;37.928;2022-12-18T15:43:41;17.98;;;8.40;;
28509;SDS011;15723;55.684;37.928;2022-12-18T15:46:14;14.57;;;7.18;;
28509;SDS011;15723;55.684;37.928;2022-12-18T15:48:43;13.65;;;6.57;;
28509;SDS011;15723;55.684;37.928;2022-12-18T15:51:30;13.05;;;6.68;;
28509;SDS011;15723;55.684;37.928;2022-12-18T15:53:59;13.40;;;7.00;;
28509;SDS011;15723;55.684;37.928;2022-12-18T15:56:30;11.75;;;6.65;;
28509;SDS011;15723;55.684;37.928;2022-12-18T15:59:16;13.13;;;6.57;;
28509;SDS011;15723;55.684;37.928;2022-12-18T16:01:45;15.50;;;6.55;;
28509;SDS011;15723;55.684;37.928;2022-12-18T16:04:14;10.75;;;6.25;;
28509;SDS011;15723;55.684;37.928;2022-12-18T16:06:42;12.23;;;6.35;;
28509;SDS011;15723;55.684;37.928;2022-12-18T16:09:08;10.27;;;6.03;;
28509;SDS011;15723;55.684;37.928;2022-12-18T16:11:35;15.32;;;7.13;;
28509;SDS011;15723;55.684;37.928;2022-12-18T16:14:19;14.52;;;6.47;;
28509;SDS011;15723;55.684;37.928;2022-12-18T16:16:48;9.50;;;5.47;;
28509;SDS011;15723;55.684;37.928;2022-12-18T16:19:20;11.00;;;6.28;;
28509;SDS011;15723;55.684;37.928;2022-12-18T16:21:47;11.85;;;6.38;;
28509;SDS011;15723;55.684;37.928;2022-12-18T16:24:15;11.15;;;5.72;;
28509;SDS011;15723;55.684;37.928;2022-12-18T16:26:42;13.45;;;6.93;;
28509;SDS011;15723;55.684;37.928;2022-12-18T16:29:08;12.27;;;5.72;;
28509;SDS011;15723;55.684;37.928;2022-12-18T16:31:36;9.68;;;6.20;;
28509;SDS011;15723;55.684;37.928;2022-12-18T16:34:36;11.93;;;5.82;;
28509;SDS011;15723;55.684;37.928;2022-12-18T16:37:01;12.68;;;6.15;;
28509;SDS011;15723;55.684;37.928;2022-12-18T16:39:29;11.63;;;6.20;;
28509;SDS011;15723;55.684;37.928;2022-12-18T16:41:56;10.13;;;5.55;;
28509;SDS011;15723;55.684;37.928;2022-12-18T16:44:23;13.10;;;6.40;;
28509;SDS011;15723;55.684;37.928;2022-12-18T16:46:49;14.52;;;6.68;;
28509;SDS011;15723;55.684;37.928;2022-12-18T16:49:16;9.35;;;5.78;;
28509;SDS011;15723;55.684;37.928;2022-12-18T16:51:43;10.40;;;5.80;;
28509;SDS011;15723;55.684;37.928;2022-12-18T16:54:12;12.77;;;5.97;;
28509;SDS011;15723;55.684;37.928;2022-12-18T16:56:38;9.45;;;5.65;;
28509;SDS011;15723;55.684;37.928;2022-12-18T16:59:05;8.85;;;5.55;;